Time;durP1;ratioP1;P1;durP2;ratioP2;P2;SDS_P1;SDS_P2;PMS_P1;PMS_P2;Temp;Humidity;BMP_temperature;BMP_pressure;BME280_temperature;BME280_humidity;BME280_pressure;Samples;Min_cycle;Max_cycle;Signal;HPM_P1;HPM_P2
2023/09/23 00:01:04;;;;;;;1.50;1.10;;;15.40;76.10;;;;;;5091861;28;20040;-73
2023/09/23 00:03:33;;;;;;;1.58;0.90;;;15.40;76.20;;;;;;5096219;28;20050;-73
2023/09/23 00:06:00;;;;;;;1.73;1.10;;;15.40;76.20;;;;;;5098465;28;20508;-73
2023/09/23 00:08:25;;;;;;;1.33;0.82;;;15.40;76.20;;;;;;5102613;28;20071;-73
2023/09/23 00:10:51;;;;;;;1.83;1.20;;;15.40;76.20;;;;;;5078041;28;20071;-73
2023/09/23 00:13:18;;;;;;;2.17;1.20;;;15.30;76.20;;;;;;5107289;28;20101;-73
2023/09/23 00:15:43;;;;;;;2.53;1.40;;;15.30;76.20;;;;;;5084249;28;20055;-73
2023/09/23 00:18:09;;;;;;;2.00;1.00;;;15.30;76.20;;;;;;5105383;28;20399;-73
2023/09/23 00:20:38;;;;;;;2.38;1.40;;;15.30;76.20;;;;;;5094319;28;20391;-73
2023/09/23 00:23:06;;;;;;;3.33;1.38;;;15.30;76.20;;;;;;5094493;28;20411;-73
2023/09/23 00:25:33;;;;;;;3.13;1.15;;;15.20;76.20;;;;;;5098315;28;20444;-73
2023/09/23 00:27:58;;;;;;;3.05;1.58;;;15.20;76.20;;;;;;5084539;28;20119;-73
2023/09/23 00:30:26;;;;;;;1.88;1.02;;;15.30;76.40;;;;;;5076997;28;20127;-73
2023/09/23 00:32:52;;;;;;;1.85;0.80;;;15.20;76.30;;;;;;5094188;28;20445;-73
2023/09/23 00:35:18;;;;;;;2.33;1.10;;;15.20;76.80;;;;;;5095493;28;20048;-73
2023/09/23 00:37:48;;;;;;;2.78;0.90;;;15.20;76.40;;;;;;5096528;28;20040;-73
2023/09/23 00:40:32;;;;;;;1.48;0.77;;;15.20;76.40;;;;;;5101922;28;20079;-73
2023/09/23 00:43:05;;;;;;;1.40;0.80;;;15.20;76.50;;;;;;5109176;28;20051;-73
2023/09/23 00:45:33;;;;;;;1.77;0.85;;;15.20;76.60;;;;;;5076787;28;20040;-73
2023/09/23 00:47:59;;;;;;;1.17;0.55;;;15.20;76.70;;;;;;5093494;28;20039;-73
2023/09/23 00:50:26;;;;;;;2.45;1.02;;;15.10;76.70;;;;;;5093369;28;20090;-73
2023/09/23 00:52:53;;;;;;;1.05;0.70;;;15.20;76.80;;;;;;5076492;28;20074;-73
2023/09/23 00:55:25;;;;;;;1.02;0.63;;;15.10;76.80;;;;;;5112387;28;20452;-73
2023/09/23 00:57:55;;;;;;;1.02;0.75;;;15.10;76.90;;;;;;5113808;28;20065;-73
2023/09/23 01:00:31;;;;;;;1.58;0.77;;;15.10;76.90;;;;;;5113629;28;20395;-73
2023/09/23 01:02:58;;;;;;;2.83;0.70;;;15.10;76.90;;;;;;5098974;28;20081;-73
2023/09/23 01:05:28;;;;;;;1.17;0.70;;;15.10;77.00;;;;;;5111791;28;20244;-73
2023/09/23 01:07:56;;;;;;;1.90;0.70;;;15.10;77.00;;;;;;5113329;28;20086;-73
2023/09/23 01:10:21;;;;;;;1.48;0.80;;;15.10;77.00;;;;;;5113395;28;20376;-73
2023/09/23 01:12:47;;;;;;;1.77;0.88;;;15.10;77.00;;;;;;5088862;28;20028;-73
2023/09/23 01:15:16;;;;;;;1.23;0.63;;;15.10;77.00;;;;;;5096337;28;20043;-73
2023/09/23 01:17:47;;;;;;;1.13;0.65;;;15.10;77.00;;;;;;5095245;28;20044;-73
2023/09/23 01:20:13;;;;;;;3.17;1.67;;;15.10;77.00;;;;;;5086398;28;20119;-73
2023/09/23 01:22:39;;;;;;;1.83;1.42;;;15.00;77.00;;;;;;5112431;28;20119;-73
2023/09/23 01:25:06;;;;;;;2.58;1.35;;;15.00;77.10;;;;;;5096477;28;20509;-73
2023/09/23 01:27:34;;;;;;;2.72;1.50;;;15.00;77.30;;;;;;5113080;28;20028;-73
2023/09/23 01:30:04;;;;;;;1.98;1.20;;;15.00;77.30;;;;;;5087873;28;20089;-73
2023/09/23 01:32:46;;;;;;;2.30;1.08;;;15.00;77.30;;;;;;5106379;28;20047;-74
2023/09/23 01:35:16;;;;;;;3.10;2.05;;;15.00;77.30;;;;;;5104543;28;20043;-73
2023/09/23 01:37:44;;;;;;;2.30;1.55;;;15.00;77.30;;;;;;5097747;28;20071;-73
2023/09/23 01:40:17;;;;;;;3.90;2.20;;;15.00;77.40;;;;;;5107707;28;20040;-73
2023/09/23 01:42:51;;;;;;;3.30;2.40;;;14.90;77.20;;;;;;5076504;28;20392;-73
2023/09/23 01:45:19;;;;;;;3.60;1.88;;;14.90;77.10;;;;;;5112739;28;20040;-73
2023/09/23 01:47:45;;;;;;;3.00;2.00;;;14.90;77.00;;;;;;5102736;28;20057;-73
2023/09/23 01:50:13;;;;;;;1.83;1.27;;;14.90;76.90;;;;;;5094692;28;20506;-73
2023/09/23 01:52:40;;;;;;;1.80;1.42;;;14.80;76.70;;;;;;5110470;28;20062;-73
2023/09/23 01:55:09;;;;;;;2.35;1.27;;;14.80;76.70;;;;;;5111624;28;20039;-73
2023/09/23 01:57:35;;;;;;;2.33;1.38;;;14.80;76.80;;;;;;5099316;28;20097;-73
2023/09/23 02:00:04;;;;;;;1.52;1.05;;;14.80;76.80;;;;;;5092501;28;20083;-73
2023/09/23 02:02:30;;;;;;;1.98;1.30;;;14.80;76.80;;;;;;5072271;28;20035;-73
2023/09/23 02:04:56;;;;;;;2.35;1.05;;;14.80;76.50;;;;;;5112481;28;20049;-73
2023/09/23 02:07:22;;;;;;;2.60;1.50;;;14.80;76.40;;;;;;5076009;28;20040;-73
2023/09/23 02:09:48;;;;;;;1.70;1.38;;;14.80;76.70;;;;;;5091914;28;20079;-73
2023/09/23 02:12:14;;;;;;;2.17;1.20;;;14.70;76.30;;;;;;5104865;28;20075;-73
2023/09/23 02:14:40;;;;;;;2.08;1.40;;;14.70;76.20;;;;;;5101941;28;20036;-73
2023/09/23 02:17:06;;;;;;;3.35;1.20;;;14.60;76.10;;;;;;5112159;28;20047;-73
2023/09/23 02:19:32;;;;;;;3.33;1.60;;;14.60;76.20;;;;;;5078541;28;20039;-73
2023/09/23 02:21:58;;;;;;;1.80;0.82;;;14.60;76.10;;;;;;5094726;28;20414;-74
2023/09/23 02:24:23;;;;;;;2.97;1.55;;;14.60;76.00;;;;;;5111413;28;20502;-73
2023/09/23 02:26:49;;;;;;;2.65;1.45;;;14.60;76.00;;;;;;5112214;28;20043;-73
2023/09/23 02:29:15;;;;;;;3.05;1.75;;;14.50;75.70;;;;;;5110457;28;20048;-73
2023/09/23 02:31:47;;;;;;;2.92;2.10;;;14.50;75.60;;;;;;5093046;28;20036;-73
2023/09/23 02:34:17;;;;;;;4.03;2.60;;;14.50;75.60;;;;;;5098105;28;20044;-74
2023/09/23 02:36:45;;;;;;;3.65;1.08;;;14.40;75.30;;;;;;5091685;28;20036;-74
2023/09/23 02:39:19;;;;;;;4.10;2.55;;;14.40;75.40;;;;;;5092178;28;20487;-73
2023/09/23 02:41:46;;;;;;;3.65;2.30;;;14.30;75.30;;;;;;5107695;28;20051;-73
2023/09/23 02:44:18;;;;;;;4.07;3.00;;;14.20;75.30;;;;;;5087153;28;20044;-73
2023/09/23 02:46:47;;;;;;;3.47;2.88;;;14.20;75.90;;;;;;5075357;28;20051;-73
2023/09/23 02:49:16;;;;;;;5.28;2.83;;;14.10;75.50;;;;;;5076110;28;20550;-74
2023/09/23 02:51:43;;;;;;;3.80;3.28;;;14.00;75.70;;;;;;5110777;28;20046;-74
2023/09/23 02:54:13;;;;;;;3.33;2.03;;;14.00;75.80;;;;;;5110204;28;20367;-73
2023/09/23 02:56:40;;;;;;;3.30;1.58;;;13.90;76.00;;;;;;5095179;28;20035;-73
2023/09/23 02:59:13;;;;;;;2.35;1.80;;;13.90;76.40;;;;;;5102085;28;20465;-73
2023/09/23 03:01:51;;;;;;;3.05;2.08;;;13.90;76.80;;;;;;5080270;28;20044;-73
2023/09/23 03:04:17;;;;;;;2.45;1.70;;;13.90;77.10;;;;;;5095821;28;20437;-73
2023/09/23 03:06:53;;;;;;;5.00;2.08;;;13.90;77.20;;;;;;5079074;28;20036;-73
2023/09/23 03:09:24;;;;;;;2.80;1.80;;;13.90;77.30;;;;;;5114782;28;20506;-73
2023/09/23 03:11:56;;;;;;;2.45;1.95;;;13.90;77.40;;;;;;5097917;28;20093;-73
2023/09/23 03:14:23;;;;;;;3.15;2.13;;;13.80;77.40;;;;;;5098363;28;20036;-74
2023/09/23 03:16:54;;;;;;;3.67;2.97;;;13.80;77.90;;;;;;5095136;28;20056;-74
2023/09/23 03:19:27;;;;;;;4.45;3.00;;;13.90;77.50;;;;;;5093488;28;20081;-73
2023/09/23 03:21:57;;;;;;;3.88;2.70;;;13.80;77.20;;;;;;5115134;28;20092;-73
2023/09/23 03:24:28;;;;;;;2.70;2.05;;;13.80;77.00;;;;;;5115671;28;20044;-74
2023/09/23 03:26:58;;;;;;;3.67;2.90;;;13.80;76.80;;;;;;5100651;28;20082;-73
2023/09/23 03:29:32;;;;;;;4.95;2.65;;;13.80;76.80;;;;;;5097990;28;20044;-73
2023/09/23 03:31:59;;;;;;;3.60;2.50;;;13.80;76.70;;;;;;5104787;28;20105;-73
2023/09/23 03:34:26;;;;;;;2.60;2.22;;;13.80;76.80;;;;;;5077909;28;20128;-73
2023/09/23 03:36:53;;;;;;;5.38;2.92;;;13.80;77.40;;;;;;5109449;28;20046;-73
2023/09/23 03:39:19;;;;;;;4.82;3.60;;;13.70;77.00;;;;;;5115143;28;20039;-73
2023/09/23 03:41:46;;;;;;;4.30;3.15;;;13.70;77.30;;;;;;5087117;28;20040;-73
2023/09/23 03:44:16;;;;;;;4.82;2.97;;;13.70;76.90;;;;;;5104541;28;20048;-73
2023/09/23 03:46:50;;;;;;;4.57;3.58;;;13.70;77.00;;;;;;5109241;28;20043;-73
2023/09/23 03:49:17;;;;;;;5.53;3.30;;;13.70;77.10;;;;;;5115363;28;20047;-73
2023/09/23 03:51:43;;;;;;;4.90;4.40;;;13.70;77.10;;;;;;5105667;28;20111;-73
2023/09/23 03:54:09;;;;;;;4.57;3.35;;;13.70;77.10;;;;;;5103682;28;20118;-73
2023/09/23 03:56:35;;;;;;;6.65;5.18;;;13.70;77.20;;;;;;5100901;28;20043;-73
2023/09/23 03:59:05;;;;;;;8.00;5.65;;;13.70;77.30;;;;;;5077941;28;20043;-73
2023/09/23 04:01:31;;;;;;;6.53;5.13;;;13.70;77.30;;;;;;5098588;28;20114;-73
2023/09/23 04:03:57;;;;;;;5.80;4.70;;;13.60;77.30;;;;;;5098172;28;20386;-73
2023/09/23 04:06:23;;;;;;;6.75;5.93;;;13.60;77.40;;;;;;5090806;28;20102;-73
2023/09/23 04:08:49;;;;;;;3.97;3.08;;;13.60;77.50;;;;;;5094550;28;20399;-73
2023/09/23 04:11:18;;;;;;;5.38;4.03;;;13.50;77.60;;;;;;5101384;28;20039;-73
2023/09/23 04:13:47;;;;;;;5.25;4.70;;;13.50;77.80;;;;;;5114547;28;20071;-73
2023/09/23 04:16:13;;;;;;;5.40;4.85;;;13.50;77.80;;;;;;5097452;28;20054;-73
2023/09/23 04:18:40;;;;;;;5.82;4.38;;;13.50;77.80;;;;;;5097037;28;20390;-73
2023/09/23 04:21:08;;;;;;;7.13;6.03;;;13.50;77.80;;;;;;5097144;28;20130;-73
2023/09/23 04:23:34;;;;;;;5.40;4.65;;;13.50;77.90;;;;;;5094205;28;20152;-73
2023/09/23 04:26:02;;;;;;;4.07;3.40;;;13.50;77.90;;;;;;5102586;28;20086;-73
2023/09/23 04:28:28;;;;;;;5.95;4.13;;;13.50;78.00;;;;;;5093890;28;20055;-73
2023/09/23 04:30:54;;;;;;;6.90;5.35;;;13.50;78.10;;;;;;5095123;28;20040;-73
2023/09/23 04:33:20;;;;;;;4.95;4.30;;;13.40;78.10;;;;;;5100761;28;20108;-74
2023/09/23 04:35:47;;;;;;;4.75;4.25;;;13.50;78.20;;;;;;5114456;28;20118;-73
2023/09/23 04:38:15;;;;;;;6.78;5.15;;;13.50;78.20;;;;;;5103955;28;20164;-73
2023/09/23 04:40:41;;;;;;;6.50;5.80;;;13.40;78.10;;;;;;5097919;28;20502;-73
2023/09/23 04:43:10;;;;;;;5.10;4.40;;;13.40;78.00;;;;;;5109953;28;20046;-73
2023/09/23 04:45:36;;;;;;;8.98;6.55;;;13.40;78.00;;;;;;5099445;28;20083;-73
2023/09/23 04:48:03;;;;;;;8.27;6.50;;;13.40;77.90;;;;;;5093683;28;20101;-73
2023/09/23 04:50:29;;;;;;;7.35;6.63;;;13.40;77.90;;;;;;5093603;28;20043;-73
2023/09/23 04:52:55;;;;;;;7.72;6.47;;;13.40;78.00;;;;;;5076553;28;20036;-73
2023/09/23 04:55:22;;;;;;;8.40;7.50;;;13.30;78.00;;;;;;5062215;28;20090;-73
2023/09/23 04:57:48;;;;;;;9.27;8.25;;;13.30;78.10;;;;;;5104970;28;20043;-73
2023/09/23 05:00:17;;;;;;;12.43;9.98;;;13.30;78.20;;;;;;5111428;28;20032;-73
2023/09/23 05:02:42;;;;;;;8.82;6.93;;;13.20;78.20;;;;;;5093170;28;20121;-73
2023/09/23 05:05:09;;;;;;;10.45;9.38;;;13.20;78.20;;;;;;5106905;28;20120;-73
2023/09/23 05:07:37;;;;;;;10.63;8.80;;;13.20;78.40;;;;;;5113427;28;20163;-73
2023/09/23 05:10:05;;;;;;;11.38;10.18;;;13.20;78.50;;;;;;5098144;28;20040;-73
2023/09/23 05:12:31;;;;;;;13.48;11.32;;;13.20;78.50;;;;;;5075748;28;20403;-73
2023/09/23 05:14:57;;;;;;;13.63;10.27;;;13.10;78.50;;;;;;5094060;28;20036;-73
2023/09/23 05:17:26;;;;;;;12.45;10.98;;;13.10;78.50;;;;;;5092357;28;20082;-73
2023/09/23 05:19:52;;;;;;;12.73;10.82;;;13.10;78.60;;;;;;5109902;28;20039;-73
2023/09/23 05:22:19;;;;;;;13.23;11.82;;;13.00;78.70;;;;;;5111953;28;20044;-73
2023/09/23 05:24:48;;;;;;;11.82;9.55;;;13.00;78.90;;;;;;5108342;28;20142;-73
2023/09/23 05:27:14;;;;;;;12.02;10.05;;;13.00;79.10;;;;;;5084685;28;20047;-73
2023/09/23 05:29:42;;;;;;;10.43;8.75;;;13.00;79.20;;;;;;5075691;28;20094;-73
2023/09/23 05:32:10;;;;;;;13.57;11.35;;;13.00;79.40;;;;;;5083975;28;20479;-73
2023/09/23 05:34:39;;;;;;;11.90;10.40;;;13.00;79.50;;;;;;5099035;28;20044;-73
2023/09/23 05:37:06;;;;;;;9.38;7.72;;;13.00;79.50;;;;;;5105607;28;20402;-73
2023/09/23 05:39:34;;;;;;;12.98;10.95;;;13.00;79.60;;;;;;5095868;28;20131;-73
2023/09/23 05:42:02;;;;;;;14.55;11.73;;;13.00;79.60;;;;;;5105810;28;20519;-73
2023/09/23 05:44:27;;;;;;;13.77;12.35;;;13.00;79.70;;;;;;5112707;28;20036;-73
2023/09/23 05:46:53;;;;;;;14.63;13.13;;;13.00;79.60;;;;;;5107472;28;20479;-73
2023/09/23 05:49:19;;;;;;;17.38;14.35;;;13.00;79.60;;;;;;5094013;28;20047;-73
2023/09/23 05:51:45;;;;;;;14.52;13.02;;;13.00;79.60;;;;;;5112729;28;20039;-73
2023/09/23 05:54:11;;;;;;;15.85;14.20;;;13.00;79.60;;;;;;5112728;28;20074;-73
2023/09/23 05:56:38;;;;;;;15.30;13.70;;;13.00;79.70;;;;;;5101976;28;20028;-73
2023/09/23 05:59:05;;;;;;;18.77;15.43;;;13.00;79.90;;;;;;5092360;28;20441;-73
2023/09/23 06:01:32;;;;;;;16.80;15.05;;;13.00;80.00;;;;;;5104081;28;20111;-73
2023/09/23 06:03:58;;;;;;;15.57;13.80;;;13.00;80.20;;;;;;5075500;28;20048;-73
2023/09/23 06:06:23;;;;;;;17.85;14.95;;;13.00;80.20;;;;;;5094021;28;20043;-74
2023/09/23 06:08:50;;;;;;;14.75;13.23;;;13.00;80.20;;;;;;5080378;28;20046;-73
2023/09/23 06:11:16;;;;;;;16.20;14.35;;;13.10;80.40;;;;;;5061294;28;20040;-73
2023/09/23 06:13:42;;;;;;;17.63;15.68;;;13.10;80.40;;;;;;5092185;28;20494;-74
2023/09/23 06:16:07;;;;;;;20.48;16.92;;;13.10;80.40;;;;;;5099627;28;20425;-75
2023/09/23 06:18:33;;;;;;;17.02;14.88;;;13.10;80.40;;;;;;5087659;28;20043;-75
2023/09/23 06:21:04;;;;;;;18.20;15.48;;;13.10;80.50;;;;;;5111850;28;20410;-75
2023/09/23 06:23:31;;;;;;;19.85;17.70;;;13.10;80.70;;;;;;5104844;28;20040;-75
2023/09/23 06:26:00;;;;;;;19.90;16.63;;;13.10;80.90;;;;;;5098980;28;20067;-75
2023/09/23 06:28:26;;;;;;;25.50;19.17;;;13.10;81.00;;;;;;5111380;28;20060;-75
2023/09/23 06:30:52;;;;;;;20.60;18.15;;;13.10;81.20;;;;;;5101974;28;20066;-75
2023/09/23 06:33:19;;;;;;;20.92;18.25;;;13.10;81.50;;;;;;5074461;28;20032;-75
2023/09/23 06:35:45;;;;;;;23.67;20.92;;;13.20;81.80;;;;;;5097098;28;20114;-74
2023/09/23 06:38:11;;;;;;;22.50;20.08;;;13.20;81.90;;;;;;5074373;28;20376;-75
2023/09/23 06:40:38;;;;;;;22.15;19.75;;;13.20;82.10;;;;;;5074741;28;20076;-75
2023/09/23 06:43:04;;;;;;;21.33;19.02;;;13.20;82.20;;;;;;5074831;28;20048;-75
2023/09/23 06:45:30;;;;;;;23.15;20.60;;;13.30;82.20;;;;;;5101334;28;20694;-75
2023/09/23 06:47:55;;;;;;;21.45;18.73;;;13.30;82.20;;;;;;5094553;28;20067;-75
2023/09/23 06:50:21;;;;;;;18.42;16.48;;;13.30;82.20;;;;;;5111729;28;20039;-74
2023/09/23 06:52:47;;;;;;;18.10;16.30;;;13.30;82.10;;;;;;5093315;28;20110;-74
2023/09/23 06:55:12;;;;;;;20.38;18.27;;;13.40;82.10;;;;;;5101964;28;20036;-74
2023/09/23 06:57:38;;;;;;;19.88;17.77;;;13.40;82.10;;;;;;5104267;28;20036;-74
2023/09/23 07:00:06;;;;;;;17.00;14.73;;;13.40;82.00;;;;;;5111841;28;20236;-75
2023/09/23 07:02:32;;;;;;;18.27;16.38;;;13.40;81.90;;;;;;5079052;28;20423;-74
2023/09/23 07:04:58;;;;;;;19.52;17.42;;;13.50;81.90;;;;;;5091535;28;20123;-74
2023/09/23 07:07:24;;;;;;;15.00;13.38;;;13.50;81.90;;;;;;5109421;28;20193;-75
2023/09/23 07:09:49;;;;;;;16.40;14.18;;;13.50;81.90;;;;;;5111512;28;20119;-75
2023/09/23 07:12:15;;;;;;;19.05;17.05;;;13.50;81.90;;;;;;5084199;28;20040;-75
2023/09/23 07:14:41;;;;;;;18.48;15.50;;;13.60;82.40;;;;;;5074772;28;20040;-75
2023/09/23 07:17:07;;;;;;;18.08;16.15;;;13.60;82.10;;;;;;5074737;28;20059;-74
2023/09/23 07:19:34;;;;;;;19.08;17.13;;;13.60;82.20;;;;;;5061764;28;20036;-74
2023/09/23 07:22:00;;;;;;;18.67;16.67;;;13.60;82.30;;;;;;5091201;28;20040;-74
2023/09/23 07:24:26;;;;;;;19.23;16.35;;;13.70;82.50;;;;;;5091528;28;20036;-74
2023/09/23 07:26:56;;;;;;;16.63;15.02;;;13.70;82.60;;;;;;5100695;28;20533;-73
2023/09/23 07:29:22;;;;;;;18.92;16.92;;;13.80;83.00;;;;;;5092534;28;20052;-74
2023/09/23 07:31:48;;;;;;;18.77;16.83;;;13.80;83.10;;;;;;5091082;28;20051;-74
2023/09/23 07:34:14;;;;;;;16.73;14.55;;;13.80;83.20;;;;;;5096738;28;20395;-74
2023/09/23 07:36:40;;;;;;;19.15;16.05;;;13.90;83.40;;;;;;5099707;28;20081;-74
2023/09/23 07:39:05;;;;;;;16.95;15.15;;;13.90;83.30;;;;;;5106086;28;20504;-74
2023/09/23 07:41:31;;;;;;;16.73;14.95;;;14.00;83.20;;;;;;5096950;28;20043;-74
2023/09/23 07:43:57;;;;;;;16.92;15.13;;;14.10;83.20;;;;;;5075034;28;20040;-74
2023/09/23 07:46:23;;;;;;;17.17;15.07;;;14.10;83.10;;;;;;5095041;28;20075;-74
2023/09/23 07:48:48;;;;;;;18.67;16.52;;;14.10;83.00;;;;;;5094579;28;20475;-74
2023/09/23 07:51:14;;;;;;;15.35;13.80;;;14.20;83.00;;;;;;5094675;28;20104;-74
2023/09/23 07:53:40;;;;;;;19.13;15.38;;;14.20;82.90;;;;;;5079130;28;20122;-74
2023/09/23 07:56:05;;;;;;;17.77;15.40;;;14.20;83.00;;;;;;5110349;28;20047;-74
2023/09/23 07:58:31;;;;;;;15.32;13.70;;;14.30;83.30;;;;;;5106276;28;20062;-74
2023/09/23 08:00:57;;;;;;;16.10;13.73;;;14.30;83.60;;;;;;5094658;28;20044;-74
2023/09/23 08:03:26;;;;;;;14.43;12.77;;;14.50;84.10;;;;;;5085497;28;20449;-75
2023/09/23 08:05:53;;;;;;;13.93;12.43;;;14.60;84.50;;;;;;5097220;28;20039;-74
2023/09/23 08:08:19;;;;;;;12.63;10.65;;;14.70;84.90;;;;;;5072939;28;20063;-74
2023/09/23 08:10:45;;;;;;;13.35;11.95;;;14.90;84.30;;;;;;5093233;28;20131;-77
2023/09/23 08:13:11;;;;;;;13.48;11.90;;;15.10;84.00;;;;;;5101528;28;20490;-76
2023/09/23 08:15:37;;;;;;;12.05;10.60;;;15.30;83.90;;;;;;5110764;28;20127;-75
2023/09/23 08:18:02;;;;;;;11.40;10.25;;;15.40;83.50;;;;;;5084009;28;20088;-76
2023/09/23 08:20:29;;;;;;;14.70;10.07;;;15.60;83.40;;;;;;5117905;27;20032;-76
2023/09/23 08:22:55;;;;;;;12.63;9.63;;;15.90;83.20;;;;;;5105475;28;20043;-76
2023/09/23 08:25:20;;;;;;;10.02;9.00;;;16.10;82.80;;;;;;5113687;28;20051;-75
2023/09/23 08:27:46;;;;;;;11.38;9.45;;;16.30;82.40;;;;;;5083898;28;20032;-75
2023/09/23 08:30:15;;;;;;;9.25;8.13;;;16.50;81.80;;;;;;5114533;28;20435;-75
2023/09/23 08:32:40;;;;;;;10.70;8.57;;;16.60;80.90;;;;;;5094760;28;20513;-77
2023/09/23 08:35:07;;;;;;;9.82;8.43;;;16.80;80.00;;;;;;5088580;28;20028;-76
2023/09/23 08:37:34;;;;;;;10.82;8.65;;;16.90;79.60;;;;;;5087228;28;20036;-76
2023/09/23 08:39:59;;;;;;;8.52;7.30;;;17.10;79.60;;;;;;5074257;28;20078;-76
2023/09/23 08:42:25;;;;;;;9.20;8.18;;;17.30;79.20;;;;;;5078822;28;20128;-76
2023/09/23 08:44:51;;;;;;;9.77;7.13;;;17.50;78.30;;;;;;5098358;28;20517;-75
2023/09/23 08:47:19;;;;;;;8.68;7.15;;;17.60;77.30;;;;;;5101653;28;20036;-76
2023/09/23 08:49:49;;;;;;;9.27;7.00;;;17.80;77.50;;;;;;5099423;28;20059;-75
2023/09/23 08:52:18;;;;;;;9.30;7.32;;;18.00;76.90;;;;;;5088521;28;20039;-75
2023/09/23 08:54:49;;;;;;;9.18;6.80;;;18.20;76.00;;;;;;5080460;28;20046;-75
2023/09/23 08:57:19;;;;;;;8.20;6.50;;;18.30;74.70;;;;;;5086443;28;20072;-75
2023/09/23 08:59:45;;;;;;;8.32;6.47;;;18.50;74.90;;;;;;5093178;28;20044;-74
2023/09/23 09:02:21;;;;;;;7.90;6.18;;;18.70;74.20;;;;;;5076690;28;20040;-75
2023/09/23 09:04:46;;;;;;;8.75;5.72;;;18.80;72.50;;;;;;5098182;28;20043;-75
2023/09/23 09:07:12;;;;;;;7.28;6.00;;;18.90;72.10;;;;;;5075850;28;20097;-76
2023/09/23 09:09:38;;;;;;;6.82;6.13;;;19.00;72.10;;;;;;5083588;28;20039;-75
2023/09/23 09:12:05;;;;;;;9.40;5.85;;;19.10;72.00;;;;;;5100082;28;20119;-75
2023/09/23 09:14:33;;;;;;;6.88;6.18;;;19.20;71.30;;;;;;5113332;28;20048;-75
2023/09/23 09:16:59;;;;;;;7.15;6.00;;;19.30;70.30;;;;;;5099241;28;20071;-75
2023/09/23 09:19:26;;;;;;;6.88;6.18;;;19.20;69.20;;;;;;5088841;28;20043;-75
2023/09/23 09:21:51;;;;;;;8.00;5.25;;;19.20;68.10;;;;;;5102060;28;20506;-75
2023/09/23 09:24:17;;;;;;;6.85;5.32;;;19.20;68.10;;;;;;5096406;28;20036;-75
2023/09/23 09:26:47;;;;;;;8.18;4.78;;;19.10;68.00;;;;;;5113428;28;20085;-74
2023/09/23 09:29:13;;;;;;;6.28;5.28;;;19.00;68.10;;;;;;5113055;28;20096;-75
2023/09/23 09:31:42;;;;;;;6.72;4.97;;;18.90;68.50;;;;;;5112176;28;20064;-75
2023/09/23 09:34:11;;;;;;;7.30;4.95;;;18.90;69.30;;;;;;5110713;28;20130;-75
2023/09/23 09:36:40;;;;;;;8.30;5.57;;;18.80;69.50;;;;;;5094234;28;20096;-75
2023/09/23 09:39:10;;;;;;;8.48;5.75;;;18.80;70.10;;;;;;5092401;28;20124;-74
2023/09/23 09:41:46;;;;;;;9.52;4.78;;;18.80;70.10;;;;;;5092512;28;20044;-74
2023/09/23 09:44:16;;;;;;;6.95;4.32;;;18.80;69.60;;;;;;5093562;28;20044;-74
2023/09/23 09:46:43;;;;;;;6.28;4.85;;;18.70;69.60;;;;;;5092438;28;20048;-74
2023/09/23 09:49:09;;;;;;;6.60;4.53;;;18.70;69.00;;;;;;5093554;28;20044;-73
2023/09/23 09:51:35;;;;;;;5.45;4.32;;;18.60;69.10;;;;;;5075443;28;20399;-73
2023/09/23 09:54:04;;;;;;;6.50;4.40;;;18.60;69.40;;;;;;5076593;28;20115;-73
2023/09/23 09:56:32;;;;;;;7.15;4.30;;;18.50;69.70;;;;;;5075719;28;20036;-74
2023/09/23 09:59:00;;;;;;;5.45;3.47;;;18.50;70.30;;;;;;5092257;28;20044;-73
2023/09/23 10:01:28;;;;;;;6.15;3.70;;;18.50;70.70;;;;;;5092493;28;20127;-73
2023/09/23 10:03:54;;;;;;;8.15;3.92;;;18.50;71.00;;;;;;5107513;28;20422;-75
2023/09/23 10:06:21;;;;;;;7.57;3.83;;;18.40;71.00;;;;;;5112703;28;20048;-74
2023/09/23 10:08:48;;;;;;;6.32;3.38;;;18.50;71.00;;;;;;5111791;28;20077;-74
2023/09/23 10:11:14;;;;;;;6.68;3.25;;;18.50;70.90;;;;;;5110853;28;20136;-74
2023/09/23 10:13:40;;;;;;;7.97;3.42;;;18.40;70.40;;;;;;5076609;28;20059;-73
2023/09/23 10:16:13;;;;;;;5.30;2.67;;;18.40;70.30;;;;;;5092187;28;20538;-74
2023/09/23 10:18:41;;;;;;;3.38;2.15;;;18.40;70.50;;;;;;5103741;28;20066;-74
2023/09/23 10:21:08;;;;;;;4.05;3.00;;;18.30;70.70;;;;;;5099452;28;20039;-74
2023/09/23 10:23:35;;;;;;;4.88;2.90;;;18.30;70.80;;;;;;5110767;28;20118;-73
2023/09/23 10:26:23;;;;;;;4.82;2.47;;;18.30;71.10;;;;;;5112497;28;20381;-74
2023/09/23 10:29:00;;;;;;;4.47;2.80;;;18.30;70.80;;;;;;5112399;28;20494;-74
2023/09/23 10:31:27;;;;;;;4.80;2.58;;;18.40;71.30;;;;;;5093434;28;20036;-72
2023/09/23 10:33:54;;;;;;;7.07;2.83;;;18.40;71.80;;;;;;5091702;28;20032;-72
2023/09/23 10:36:21;;;;;;;4.70;2.40;;;18.50;71.60;;;;;;5074841;28;20038;-73
2023/09/23 10:38:47;;;;;;;4.65;2.60;;;18.50;71.40;;;;;;5091980;28;20098;-76
2023/09/23 10:41:13;;;;;;;5.72;2.55;;;18.50;71.30;;;;;;5090923;28;20096;-72
2023/09/23 10:43:39;;;;;;;4.35;2.42;;;18.50;71.10;;;;;;5111181;28;20047;-72
2023/09/23 10:46:05;;;;;;;4.20;2.00;;;18.50;70.70;;;;;;5111902;28;20043;-73
2023/09/23 10:48:31;;;;;;;3.42;2.20;;;18.50;70.10;;;;;;5103170;28;20044;-73
2023/09/23 10:51:01;;;;;;;4.28;2.05;;;18.50;70.30;;;;;;5074894;28;20047;-73
2023/09/23 10:53:30;;;;;;;7.65;2.58;;;18.40;70.30;;;;;;5100061;28;20035;-73
2023/09/23 10:56:01;;;;;;;5.63;2.45;;;18.40;70.40;;;;;;5112056;28;20051;-73
2023/09/23 10:58:29;;;;;;;5.80;2.03;;;18.40;70.50;;;;;;5100994;28;20113;-73
2023/09/23 11:00:56;;;;;;;2.45;1.60;;;18.40;70.40;;;;;;5091171;28;20100;-73
2023/09/23 11:03:22;;;;;;;3.20;2.00;;;18.40;70.20;;;;;;5091908;28;20066;-73
2023/09/23 11:05:48;;;;;;;4.35;1.98;;;18.40;70.20;;;;;;5072302;28;20484;-73
2023/09/23 11:08:15;;;;;;;5.40;1.85;;;18.50;70.50;;;;;;5111671;28;20039;-73
2023/09/23 11:10:43;;;;;;;3.63;1.73;;;18.50;70.60;;;;;;5095088;28;20040;-73
2023/09/23 11:13:10;;;;;;;3.00;1.55;;;18.50;70.40;;;;;;5111033;28;20047;-73
2023/09/23 11:15:41;;;;;;;4.50;2.08;;;18.60;70.30;;;;;;5108070;28;20036;-73
2023/09/23 11:18:12;;;;;;;5.90;2.03;;;18.60;70.10;;;;;;5074225;28;20056;-73
2023/09/23 11:20:47;;;;;;;4.32;1.60;;;18.60;69.50;;;;;;5095777;28;20040;-72
2023/09/23 11:23:13;;;;;;;2.78;1.85;;;18.70;69.40;;;;;;5102417;28;20085;-73
2023/09/23 11:25:44;;;;;;;6.65;1.83;;;18.70;69.70;;;;;;5095279;28;20368;-73
2023/09/23 11:28:21;;;;;;;4.07;1.77;;;18.70;69.70;;;;;;5095037;28;20047;-74
2023/09/23 11:30:48;;;;;;;3.05;1.50;;;18.70;69.60;;;;;;5096661;28;20047;-73
2023/09/23 11:33:14;;;;;;;3.45;1.70;;;18.70;69.30;;;;;;5106988;28;20047;-73
2023/09/23 11:35:41;;;;;;;4.82;1.65;;;18.70;69.20;;;;;;5098494;28;20040;-73
2023/09/23 11:38:06;;;;;;;5.10;1.40;;;18.70;69.20;;;;;;5112070;28;20027;-74
2023/09/23 11:40:34;;;;;;;3.17;1.00;;;18.70;69.30;;;;;;5066990;28;20092;-73
2023/09/23 11:43:00;;;;;;;2.90;1.10;;;18.70;69.20;;;;;;5113518;28;20039;-73
2023/09/23 11:45:26;;;;;;;6.72;2.30;;;18.60;69.40;;;;;;5113354;28;20036;-75
2023/09/23 11:47:51;;;;;;;3.92;1.80;;;18.60;70.00;;;;;;5115338;28;20092;-75
2023/09/23 11:50:17;;;;;;;5.32;2.38;;;18.60;70.60;;;;;;5093593;28;20050;-74
2023/09/23 11:52:43;;;;;;;8.77;3.05;;;18.50;71.20;;;;;;5081402;28;20033;-75
2023/09/23 11:55:12;;;;;;;4.35;2.22;;;18.50;72.30;;;;;;5098544;28;20036;-75
2023/09/23 11:57:39;;;;;;;4.28;1.98;;;18.40;73.60;;;;;;5112447;28;20118;-75
2023/09/23 12:00:09;;;;;;;4.97;2.03;;;18.40;74.60;;;;;;5097694;28;20051;-72
2023/09/23 12:02:39;;;;;;;4.50;1.95;;;18.40;74.80;;;;;;5105378;28;20403;-74
2023/09/23 12:05:11;;;;;;;5.55;1.38;;;18.40;75.10;;;;;;5105447;28;20158;-74
2023/09/23 12:07:37;;;;;;;3.10;1.45;;;18.30;75.60;;;;;;5103937;28;20494;-74
2023/09/23 12:10:03;;;;;;;3.30;1.40;;;18.30;75.30;;;;;;5102374;28;20044;-72
2023/09/23 12:12:29;;;;;;;3.83;1.15;;;18.30;74.90;;;;;;5104973;28;20039;-74
2023/09/23 12:14:55;;;;;;;3.08;1.08;;;18.20;74.40;;;;;;5085524;28;20036;-74
2023/09/23 12:17:21;;;;;;;2.30;1.45;;;18.20;74.20;;;;;;5068198;28;20055;-74
2023/09/23 12:19:47;;;;;;;2.67;1.40;;;18.20;74.60;;;;;;5104472;28;20043;-74
2023/09/23 12:22:15;;;;;;;3.20;1.33;;;18.20;75.00;;;;;;5109805;28;20107;-73
2023/09/23 12:24:45;;;;;;;5.78;1.45;;;18.10;75.40;;;;;;5082950;28;20057;-73
2023/09/23 12:27:14;;;;;;;2.90;1.02;;;18.20;75.90;;;;;;5096667;28;20035;-73
2023/09/23 12:29:40;;;;;;;4.07;1.33;;;18.20;76.20;;;;;;5101472;28;20072;-73
2023/09/23 12:32:06;;;;;;;4.70;1.23;;;18.20;76.40;;;;;;5096269;28;21424;-73
2023/09/23 12:34:32;;;;;;;3.67;1.00;;;18.20;76.30;;;;;;5098349;28;20036;-73
2023/09/23 12:36:58;;;;;;;2.28;0.88;;;18.20;75.50;;;;;;5098476;28;20081;-73
2023/09/23 12:39:24;;;;;;;1.90;0.73;;;18.30;75.10;;;;;;5097774;28;20047;-72
2023/09/23 12:41:50;;;;;;;2.42;1.15;;;18.30;74.90;;;;;;5098447;28;20043;-72